James Clark Ross — ZDLP — position and weather

sailwx.info

Track history (hours):
 
Tides and Currents Weather Stations Pressure Air Temp Water Temp Dewpoint Dewpoint Depression Visibility Wind Speed Wind Dir Waves Ship Positions

Oceanographic research ship James Clark Ross (UK)

Detailed information on ship capabilities available from University of Delaware's Ocean Information Center and ARCUS's ALIAS (Arctic Logistics Information and Support) project.

Last reported at 2017-Aug-20 00:52 UTC. Time now 2017-Aug-20 04:05 UTC.
Position N 51°34' E 002°19'.

Length 99 m; beam 18.8 m; draft 6.3 m.

Type: Ship. MMSI: 740339000.

Date/timePositionNaut miles runAvg speedWind from/ knotsBaromVisibWave heightAir tempDewpointWater temp
2017-Aug-20 00:52N 51°34' E 002°19'511.9
2017-Aug-20 00:28N 51°30' E 002°14'511.1
2017-Aug-20 00:00N 51°25' E 002°12'4 7.7
2017-Aug-19 23:30N 51°22' E 002°10'611.3
2017-Aug-19 23:00N 51°16' E 002°06'612.3
2017-Aug-19 22:30N 51°12' E 001°59'713.0
2017-Aug-19 22:00N 51°09' E 001°50'713.1
2017-Aug-19 21:30N 51°04' E 001°42'713.2
2017-Aug-19 21:00N 50°60' E 001°35'612.3
2017-Aug-19 20:30N 50°55' E 001°29'611.4
2017-Aug-19 19:59N 50°49' E 001°25'4710.5
2017-Aug-19 15:30N 50°24' E 000°22'711.6
2017-Aug-19 14:52N 50°22' E 000°11'1011.6
2017-Aug-19 14:00N 50°21' W 000°04'611.6
2017-Aug-19 13:30N 50°22' W 000°13'611.4
2017-Aug-19 13:00N 50°24' W 000°22'1211.5
2017-Aug-19 12:00N 50°30' W 000°36'511.2
2017-Aug-19 11:30N 50°33' W 000°44'510.6
2017-Aug-19 11:00N 50°36' W 000°51'511.1
2017-Aug-19 10:30N 50°40' W 000°57'611.4
2017-Aug-19 10:00N 50°44' W 001°03'510.4
2017-Aug-19 09:30N 50°46' W 001°11'510.3
2017-Aug-19 09:00N 50°47' W 001°19'4 8.2
2017-Aug-19 08:31N 50°51' W 001°21'3 0.2
2017-Aug-18 19:08N 50°54' W 001°24'0 0.0
2017-Aug-18 18:56N 50°54' W 001°24'0 0.0
2017-Aug-18 18:26N 50°54' W 001°24'0 0.0
2017-Aug-17 14:14N 50°54' W 001°24'0 0.0
2017-Aug-17 13:56N 50°54' W 001°24'0 0.0
2017-Aug-17 13:20N 50°54' W 001°24'0 0.0
2017-Aug-17 12:59N 50°54' W 001°24'0 0.0
2017-Aug-17 12:05N 50°54' W 001°24'  
2017-Aug-15 07:01N 50°53' W 001°24'0 1.7
2017-Aug-15 06:47N 50°53' W 001°24'2 6.0
2017-Aug-15 06:30N 50°52' W 001°22'3 6.6
2017-Aug-15 06:01N 50°50' W 001°18'3 6.2
2017-Aug-15 05:31N 50°48' W 001°15'5 9.6
2017-Aug-15 05:00N 50°46' W 001°08'4 9.0
2017-Aug-15 04:31N 50°43' W 001°02'4 7.5
2017-Aug-15 04:01N 50°40' W 000°58'3 5.7
2017-Aug-15 03:31N 50°38' W 000°56'4 8.5
2017-Aug-15 03:00N 50°37' W 000°50'4 8.5
2017-Aug-15 02:31N 50°36' W 000°43'4 8.4
2017-Aug-15 02:01N 50°35' W 000°37'4 8.5
2017-Aug-15 01:31N 50°34' W 000°30'4 8.3
2017-Aug-15 01:01N 50°33' W 000°24'4 8.4
2017-Aug-15 00:31N 50°32' W 000°17'4 8.4
2017-Aug-15 00:01N 50°32' W 000°11'4206.0
2017-Aug-15 00:00N 50°30' W 000°06'1 2.2 080 / 81013.710.8 18.216.718.1
2017-Aug-14 23:30N 50°31' W 000°05'4 8.0
2017-Aug-14 23:00N 50°32' E 000°01'4 7.9
2017-Aug-14 22:31N 50°33' E 000°07'4 7.7
2017-Aug-14 22:00N 50°34' E 000°13'4 7.9
2017-Aug-14 21:31N 50°35' E 000°19'4 8.1
2017-Aug-14 21:01N 50°36' E 000°25'4 8.3
2017-Aug-14 20:31N 50°37' E 000°31'4 8.2
2017-Aug-14 20:01N 50°39' E 000°37'4 7.8
2017-Aug-14 19:31N 50°41' E 000°42'4 7.1
2017-Aug-14 19:01N 50°43' E 000°46'4 8.4
2017-Aug-14 18:31N 50°46' E 000°52'4 8.8
2017-Aug-14 18:01N 50°48' E 000°57'4 8.8
2017-Aug-14 17:31N 50°51' E 001°03'4 8.6
2017-Aug-14 17:01N 50°54' E 001°08'4 8.9
2017-Aug-14 16:31N 50°57' E 001°13'5 9.0
2017-Aug-14 16:01N 50°60' E 001°19'4 8.2
2017-Aug-14 15:31N 51°02' E 001°24'4 8.1
2017-Aug-14 15:01N 51°05' E 001°29'4 8.8
2017-Aug-14 14:31N 51°08' E 001°34'4 8.9
2017-Aug-14 14:00N 51°10' E 001°40'4 9.0
2017-Aug-14 13:31N 51°13' E 001°45'510.4
2017-Aug-14 13:00N 51°18' E 001°49'5 9.8
2017-Aug-14 12:31N 51°23' E 001°52'4 8.5
2017-Aug-14 12:00N 51°26' E 001°56'5 9.0
2017-Aug-14 11:30N 51°30' E 002°00'5 9.2
2017-Aug-14 11:01N 51°33' E 002°05'5 9.5
2017-Aug-14 10:30N 51°36' E 002°11'5 9.6
2017-Aug-14 10:00N 51°40' E 002°16'5 9.7
2017-Aug-14 09:28N 51°44' E 002°22'5 9.5
2017-Aug-14 08:57N 51°47' E 002°27'4 9.3
2017-Aug-14 08:30N 51°50' E 002°32'5 9.2
2017-Aug-14 07:59N 51°54' E 002°36'4 9.3
2017-Aug-14 07:30N 51°59' E 002°37'510.1
2017-Aug-14 07:00N 52°04' E 002°38'510.0
2017-Aug-14 06:31N 52°09' E 002°39'5 9.9
2017-Aug-14 06:00N 52°14' E 002°40'6 9.8
2017-Aug-14 05:25N 52°19' E 002°40'4 9.9
2017-Aug-14 05:00N 52°23' E 002°40'5 9.7
2017-Aug-14 04:28N 52°29' E 002°41'43 9.7
2017-Aug-14 00:00N 53°12' E 002°42'323.4 180 / 91020.810.8 16.611.318.2
2017-Aug-13 23:53N 53°14' E 002°45'510.2
2017-Aug-13 23:22N 53°19' E 002°47'1110.4
2017-Aug-13 22:19N 53°29' E 002°53'11210.9
2017-Aug-13 12:00N 55°18' E 003°42'474 9.9 250 / 71020.510.8 16.4 8.217.1
2017-Aug-11 12:00N 63°12' E 004°18'25 4.2 200 / 50997.4 5.4 13.012.413.9
2017-Aug-11 06:00N 63°36' E 004°36'27 4.6 220 / 48999.5 2.2 13.611.413.7
2017-Aug-11 00:00N 64°00' E 005°06'12610.5 220 / 371004.3 5.4 13.312.614.4
2017-Aug-10 12:00N 65°54' E 007°12'   200 / 181006.110.8 12.510.613.8
Track history (hours):
 
Tides and Currents Weather Stations Pressure Air Temp Water Temp Dewpoint Dewpoint Depression Visibility Wind Speed Wind Dir Waves Ship Positions

Oceanographic research ship James Clark Ross (UK)

Detailed information on ship capabilities available from University of Delaware's Ocean Information Center and ARCUS's ALIAS (Arctic Logistics Information and Support) project.

Last reported at 2017-Aug-20 00:52 UTC. Time now 2017-Aug-20 04:05 UTC.
Position N 51°34' E 002°19'.

Length 99 m; beam 18.8 m; draft 6.3 m.

Type: Ship. MMSI: 740339000.

Date/timePositionNaut miles runAvg speedWind from/ knotsBaromVisibWave heightAir tempDewpointWater temp
2017-Aug-20 00:52N 51°34' E 002°19'511.9
2017-Aug-20 00:28N 51°30' E 002°14'511.1
2017-Aug-20 00:00N 51°25' E 002°12'4 7.7
2017-Aug-19 23:30N 51°22' E 002°10'611.3
2017-Aug-19 23:00N 51°16' E 002°06'612.3
2017-Aug-19 22:30N 51°12' E 001°59'713.0
2017-Aug-19 22:00N 51°09' E 001°50'713.1
2017-Aug-19 21:30N 51°04' E 001°42'713.2
2017-Aug-19 21:00N 50°60' E 001°35'612.3
2017-Aug-19 20:30N 50°55' E 001°29'611.4
2017-Aug-19 19:59N 50°49' E 001°25'4710.5
2017-Aug-19 15:30N 50°24' E 000°22'711.6
2017-Aug-19 14:52N 50°22' E 000°11'1011.6
2017-Aug-19 14:00N 50°21' W 000°04'611.6
2017-Aug-19 13:30N 50°22' W 000°13'611.4
2017-Aug-19 13:00N 50°24' W 000°22'1211.5
2017-Aug-19 12:00N 50°30' W 000°36'511.2
2017-Aug-19 11:30N 50°33' W 000°44'510.6
2017-Aug-19 11:00N 50°36' W 000°51'511.1
2017-Aug-19 10:30N 50°40' W 000°57'611.4
2017-Aug-19 10:00N 50°44' W 001°03'510.4
2017-Aug-19 09:30N 50°46' W 001°11'510.3
2017-Aug-19 09:00N 50°47' W 001°19'4 8.2
2017-Aug-19 08:31N 50°51' W 001°21'3 0.2
2017-Aug-18 19:08N 50°54' W 001°24'0 0.0
2017-Aug-18 18:56N 50°54' W 001°24'0 0.0
2017-Aug-18 18:26N 50°54' W 001°24'0 0.0
2017-Aug-17 14:14N 50°54' W 001°24'0 0.0
2017-Aug-17 13:56N 50°54' W 001°24'0 0.0
2017-Aug-17 13:20N 50°54' W 001°24'0 0.0
2017-Aug-17 12:59N 50°54' W 001°24'0 0.0
2017-Aug-17 12:05N 50°54' W 001°24'  
2017-Aug-15 07:01N 50°53' W 001°24'0 1.7
2017-Aug-15 06:47N 50°53' W 001°24'2 6.0
2017-Aug-15 06:30N 50°52' W 001°22'3 6.6
2017-Aug-15 06:01N 50°50' W 001°18'3 6.2
2017-Aug-15 05:31N 50°48' W 001°15'5 9.6
2017-Aug-15 05:00N 50°46' W 001°08'4 9.0
2017-Aug-15 04:31N 50°43' W 001°02'4 7.5
2017-Aug-15 04:01N 50°40' W 000°58'3 5.7
2017-Aug-15 03:31N 50°38' W 000°56'4 8.5
2017-Aug-15 03:00N 50°37' W 000°50'4 8.5
2017-Aug-15 02:31N 50°36' W 000°43'4 8.4
2017-Aug-15 02:01N 50°35' W 000°37'4 8.5
2017-Aug-15 01:31N 50°34' W 000°30'4 8.3
2017-Aug-15 01:01N 50°33' W 000°24'4 8.4
2017-Aug-15 00:31N 50°32' W 000°17'4 8.4
2017-Aug-15 00:01N 50°32' W 000°11'4206.0
2017-Aug-15 00:00N 50°30' W 000°06'1 2.2 080 / 81013.710.8 18.216.718.1
2017-Aug-14 23:30N 50°31' W 000°05'4 8.0
2017-Aug-14 23:00N 50°32' E 000°01'4 7.9
2017-Aug-14 22:31N 50°33' E 000°07'4 7.7
2017-Aug-14 22:00N 50°34' E 000°13'4 7.9
2017-Aug-14 21:31N 50°35' E 000°19'4 8.1
2017-Aug-14 21:01N 50°36' E 000°25'4 8.3
2017-Aug-14 20:31N 50°37' E 000°31'4 8.2
2017-Aug-14 20:01N 50°39' E 000°37'4 7.8
2017-Aug-14 19:31N 50°41' E 000°42'4 7.1
2017-Aug-14 19:01N 50°43' E 000°46'4 8.4
2017-Aug-14 18:31N 50°46' E 000°52'4 8.8
2017-Aug-14 18:01N 50°48' E 000°57'4 8.8
2017-Aug-14 17:31N 50°51' E 001°03'4 8.6
2017-Aug-14 17:01N 50°54' E 001°08'4 8.9
2017-Aug-14 16:31N 50°57' E 001°13'5 9.0
2017-Aug-14 16:01N 50°60' E 001°19'4 8.2
2017-Aug-14 15:31N 51°02' E 001°24'4 8.1
2017-Aug-14 15:01N 51°05' E 001°29'4 8.8
2017-Aug-14 14:31N 51°08' E 001°34'4 8.9
2017-Aug-14 14:00N 51°10' E 001°40'4 9.0
2017-Aug-14 13:31N 51°13' E 001°45'510.4
2017-Aug-14 13:00N 51°18' E 001°49'5 9.8
2017-Aug-14 12:31N 51°23' E 001°52'4 8.5
2017-Aug-14 12:00N 51°26' E 001°56'5 9.0
2017-Aug-14 11:30N 51°30' E 002°00'5 9.2
2017-Aug-14 11:01N 51°33' E 002°05'5 9.5
2017-Aug-14 10:30N 51°36' E 002°11'5 9.6
2017-Aug-14 10:00N 51°40' E 002°16'5 9.7
2017-Aug-14 09:28N 51°44' E 002°22'5 9.5
2017-Aug-14 08:57N 51°47' E 002°27'4 9.3
2017-Aug-14 08:30N 51°50' E 002°32'5 9.2
2017-Aug-14 07:59N 51°54' E 002°36'4 9.3
2017-Aug-14 07:30N 51°59' E 002°37'510.1
2017-Aug-14 07:00N 52°04' E 002°38'510.0
2017-Aug-14 06:31N 52°09' E 002°39'5 9.9
2017-Aug-14 06:00N 52°14' E 002°40'6 9.8
2017-Aug-14 05:25N 52°19' E 002°40'4 9.9
2017-Aug-14 05:00N 52°23' E 002°40'5 9.7
2017-Aug-14 04:28N 52°29' E 002°41'43 9.7
2017-Aug-14 00:00N 53°12' E 002°42'323.4 180 / 91020.810.8 16.611.318.2
2017-Aug-13 23:53N 53°14' E 002°45'510.2
2017-Aug-13 23:22N 53°19' E 002°47'1110.4
2017-Aug-13 22:19N 53°29' E 002°53'11210.9
2017-Aug-13 12:00N 55°18' E 003°42'474 9.9 250 / 71020.510.8 16.4 8.217.1
2017-Aug-11 12:00N 63°12' E 004°18'25 4.2 200 / 50997.4 5.4 13.012.413.9
2017-Aug-11 06:00N 63°36' E 004°36'27 4.6 220 / 48999.5 2.2 13.611.413.7
2017-Aug-11 00:00N 64°00' E 005°06'12610.5 220 / 371004.3 5.4 13.312.614.4
2017-Aug-10 12:00N 65°54' E 007°12'   200 / 181006.110.8 12.510.613.8

Dump ship's entire track history